sensor_id;sensor_type;location;lat;lon;timestamp;pressure;altitude;pressure_sealevel;temperature;humidity
13476;BME280;6810;63.824;20.288;2024-02-16T00:02:11;102092.03;;;0.47;78.04
13476;BME280;6810;63.824;20.288;2024-02-16T00:05:18;102120.06;;;0.68;78.23
13476;BME280;6810;63.824;20.288;2024-02-16T00:08:25;102127.94;;;0.69;78.34
13476;BME280;6810;63.824;20.288;2024-02-16T00:11:32;102120.97;;;0.68;78.32
13476;BME280;6810;63.824;20.288;2024-02-16T00:14:39;102121.84;;;0.69;78.06
13476;BME280;6810;63.824;20.288;2024-02-16T00:17:29;102121.84;;;0.69;78.21
13476;BME280;6810;63.824;20.288;2024-02-16T00:20:36;102114.84;;;0.69;78.21
13476;BME280;6810;63.824;20.288;2024-02-16T00:23:43;102113.97;;;0.69;78.24
13476;BME280;6810;63.824;20.288;2024-02-16T00:26:50;102118.34;;;0.70;78.01
13476;BME280;6810;63.824;20.288;2024-02-16T00:29:57;102120.97;;;0.68;78.39
13476;BME280;6810;63.824;20.288;2024-02-16T00:33:04;102122.72;;;0.69;78.36
13476;BME280;6810;63.824;20.288;2024-02-16T00:36:11;102124.47;;;0.70;78.03
13476;BME280;6810;63.824;20.288;2024-02-16T00:39:18;102120.09;;;0.69;78.18
13476;BME280;6810;63.824;20.288;2024-02-16T00:42:25;102129.72;;;0.69;78.36
13476;BME280;6810;63.824;20.288;2024-02-16T00:45:32;102119.22;;;0.69;78.50
13476;BME280;6810;63.824;20.288;2024-02-16T00:48:38;102113.97;;;0.69;78.44
13476;BME280;6810;63.824;20.288;2024-02-16T00:51:46;102113.97;;;0.67;78.32
13476;BME280;6810;63.824;20.288;2024-02-16T00:54:52;102122.72;;;0.69;78.39
13476;BME280;6810;63.824;20.288;2024-02-16T00:57:59;102112.22;;;0.68;78.32
13476;BME280;6810;63.824;20.288;2024-02-16T01:01:06;102063.13;;;0.34;77.92
13476;BME280;6810;63.824;20.288;2024-02-16T01:04:13;102108.75;;;0.69;78.07
13476;BME280;6810;63.824;20.288;2024-02-16T01:07:20;102108.75;;;0.69;78.42
13476;BME280;6810;63.824;20.288;2024-02-16T01:10:27;102110.47;;;0.68;78.39
13476;BME280;6810;63.824;20.288;2024-02-16T01:13:34;102108.75;;;0.69;78.24
13476;BME280;6810;63.824;20.288;2024-02-16T01:16:40;102113.97;;;0.67;78.69
13476;BME280;6810;63.824;20.288;2024-02-16T01:19:47;102118.34;;;0.70;78.49
13476;BME280;6810;63.824;20.288;2024-02-16T01:22:54;102110.47;;;0.70;78.71
13476;BME280;6810;63.824;20.288;2024-02-16T01:26:01;102112.22;;;0.71;78.72
13476;BME280;6810;63.824;20.288;2024-02-16T01:29:08;102106.97;;;0.71;78.89
13476;BME280;6810;63.824;20.288;2024-02-16T01:32:15;102100.88;;;0.70;78.96
13476;BME280;6810;63.824;20.288;2024-02-16T01:35:22;102089.50;;;0.71;78.70
13476;BME280;6810;63.824;20.288;2024-02-16T01:38:29;102091.22;;;0.71;78.59
13476;BME280;6810;63.824;20.288;2024-02-16T01:41:39;102085.13;;;0.69;78.78
13476;BME280;6810;63.824;20.288;2024-02-16T01:44:46;102081.63;;;0.71;78.76
13476;BME280;6810;63.824;20.288;2024-02-16T01:47:53;102082.50;;;0.72;78.56
13476;BME280;6810;63.824;20.288;2024-02-16T01:51:01;102083.38;;;0.72;78.83
13476;BME280;6810;63.824;20.288;2024-02-16T01:54:08;102085.13;;;0.73;78.61
13476;BME280;6810;63.824;20.288;2024-02-16T01:57:15;102085.13;;;0.72;78.74
13476;BME280;6810;63.824;20.288;2024-02-16T02:00:23;102080.75;;;0.74;78.48
13476;BME280;6810;63.824;20.288;2024-02-16T02:03:29;102065.88;;;0.73;78.79
13476;BME280;6810;63.824;20.288;2024-02-16T02:06:36;102066.78;;;0.75;78.62
13476;BME280;6810;63.824;20.288;2024-02-16T02:09:43;102065.91;;;0.76;78.75
13476;BME280;6810;63.824;20.288;2024-02-16T02:12:50;102054.50;;;0.75;78.87
13476;BME280;6810;63.824;20.288;2024-02-16T02:15:58;102048.41;;;0.76;78.80
13476;BME280;6810;63.824;20.288;2024-02-16T02:19:05;102045.78;;;0.72;78.66
13476;BME280;6810;63.824;20.288;2024-02-16T02:22:16;102054.53;;;0.77;78.92
13476;BME280;6810;63.824;20.288;2024-02-16T02:25:23;102058.91;;;0.78;78.87
13476;BME280;6810;63.824;20.288;2024-02-16T02:28:30;102059.75;;;0.77;78.91
13476;BME280;6810;63.824;20.288;2024-02-16T02:31:37;101926.69;;;0.10;78.94
13476;BME280;6810;63.824;20.288;2024-02-16T02:34:44;102032.66;;;0.73;78.72
13476;BME280;6810;63.824;20.288;2024-02-16T02:37:51;102031.78;;;0.79;78.76
13476;BME280;6810;63.824;20.288;2024-02-16T02:40:58;102026.53;;;0.77;79.02
13476;BME280;6810;63.824;20.288;2024-02-16T02:44:04;102021.28;;;0.77;78.71
13476;BME280;6810;63.824;20.288;2024-02-16T02:47:11;102014.31;;;0.78;78.84
13476;BME280;6810;63.824;20.288;2024-02-16T02:50:18;102009.91;;;0.77;79.17
13476;BME280;6810;63.824;20.288;2024-02-16T02:53:28;101981.91;;;0.65;78.68
13476;BME280;6810;63.824;20.288;2024-02-16T02:56:35;102008.19;;;0.79;79.02
13476;BME280;6810;63.824;20.288;2024-02-16T02:59:02;102002.03;;;0.78;79.26
13476;BME280;6810;63.824;20.288;2024-02-16T03:01:32;102004.66;;;0.80;78.62
13476;BME280;6810;63.824;20.288;2024-02-16T03:04:00;102003.81;;;0.81;79.09
13476;BME280;6810;63.824;20.288;2024-02-16T03:06:28;101995.94;;;0.81;79.24
13476;BME280;6810;63.824;20.288;2024-02-16T03:08:55;101983.69;;;0.81;79.00
13476;BME280;6810;63.824;20.288;2024-02-16T03:11:22;101984.56;;;0.82;79.36
13476;BME280;6810;63.824;20.288;2024-02-16T03:13:49;101991.56;;;0.83;79.25
13476;BME280;6810;63.824;20.288;2024-02-16T03:16:16;101979.31;;;0.82;79.25
13476;BME280;6810;63.824;20.288;2024-02-16T03:18:43;101977.59;;;0.84;78.95
13476;BME280;6810;63.824;20.288;2024-02-16T03:21:14;101977.59;;;0.84;79.34
13476;BME280;6810;63.824;20.288;2024-02-16T03:23:44;101970.56;;;0.86;79.01
13476;BME280;6810;63.824;20.288;2024-02-16T03:26:51;101962.69;;;0.84;79.21
13476;BME280;6810;63.824;20.288;2024-02-16T03:29:58;101965.31;;;0.86;79.28
13476;BME280;6810;63.824;20.288;2024-02-16T03:33:05;101961.84;;;0.87;79.29
13476;BME280;6810;63.824;20.288;2024-02-16T03:36:13;101959.22;;;0.87;79.47
13476;BME280;6810;63.824;20.288;2024-02-16T03:39:20;101955.72;;;0.88;78.91
13476;BME280;6810;63.824;20.288;2024-02-16T03:42:27;101954.81;;;0.89;79.16
13476;BME280;6810;63.824;20.288;2024-02-16T03:45:34;101955.72;;;0.89;79.25
13476;BME280;6810;63.824;20.288;2024-02-16T03:48:41;101952.19;;;0.90;79.05
13476;BME280;6810;63.824;20.288;2024-02-16T03:51:48;101943.47;;;0.81;78.81
13476;BME280;6810;63.824;20.288;2024-02-16T03:54:54;101952.19;;;0.90;79.39
13476;BME280;6810;63.824;20.288;2024-02-16T03:58:02;101951.34;;;0.90;79.19
13476;BME280;6810;63.824;20.288;2024-02-16T04:01:08;101953.09;;;0.94;79.45
13476;BME280;6810;63.824;20.288;2024-02-16T04:04:16;101923.34;;;0.81;79.55
13476;BME280;6810;63.824;20.288;2024-02-16T04:07:23;101939.97;;;0.95;79.57
13476;BME280;6810;63.824;20.288;2024-02-16T04:10:29;101935.59;;;0.91;79.51
13476;BME280;6810;63.824;20.288;2024-02-16T04:12:56;101936.50;;;0.96;79.33
13476;BME280;6810;63.824;20.288;2024-02-16T04:15:23;101937.34;;;0.98;79.73
13476;BME280;6810;63.824;20.288;2024-02-16T04:17:51;101925.09;;;0.97;79.60
13476;BME280;6810;63.824;20.288;2024-02-16T04:20:19;101927.72;;;0.99;79.13
13476;BME280;6810;63.824;20.288;2024-02-16T04:22:46;101913.72;;;0.95;79.40
13476;BME280;6810;63.824;20.288;2024-02-16T04:25:13;101923.38;;;1.02;79.89
13476;BME280;6810;63.824;20.288;2024-02-16T04:27:40;101928.63;;;1.02;79.19
13476;BME280;6810;63.824;20.288;2024-02-16T04:30:07;101926.00;;;1.02;79.94
13476;BME280;6810;63.824;20.288;2024-02-16T04:32:34;101924.22;;;1.04;79.71
13476;BME280;6810;63.824;20.288;2024-02-16T04:35:01;101920.75;;;1.05;79.53
13476;BME280;6810;63.824;20.288;2024-02-16T04:37:29;101915.50;;;1.05;79.88
13476;BME280;6810;63.824;20.288;2024-02-16T04:39:55;101911.97;;;1.06;79.79
13476;BME280;6810;63.824;20.288;2024-02-16T04:42:23;101909.34;;;1.08;79.38
13476;BME280;6810;63.824;20.288;2024-02-16T04:44:49;101898.84;;;1.05;79.45
13476;BME280;6810;63.824;20.288;2024-02-16T04:47:16;101900.59;;;1.09;79.67
13476;BME280;6810;63.824;20.288;2024-02-16T04:49:43;101894.47;;;1.10;79.71
13476;BME280;6810;63.824;20.288;2024-02-16T04:52:10;101890.09;;;1.12;80.05
13476;BME280;6810;63.824;20.288;2024-02-16T04:54:37;101890.09;;;1.12;79.60
13476;BME280;6810;63.824;20.288;2024-02-16T04:57:07;101884.84;;;1.12;80.06
13476;BME280;6810;63.824;20.288;2024-02-16T04:59:34;101882.19;;;1.13;79.83
13476;BME280;6810;63.824;20.288;2024-02-16T05:02:02;101877.84;;;1.14;79.95
13476;BME280;6810;63.824;20.288;2024-02-16T05:04:30;101865.59;;;1.13;79.72
13476;BME280;6810;63.824;20.288;2024-02-16T05:06:57;101869.06;;;1.16;79.80
13476;BME280;6810;63.824;20.288;2024-02-16T05:10:08;101868.22;;;1.17;79.89
13476;BME280;6810;63.824;20.288;2024-02-16T05:13:15;101861.19;;;1.18;79.79
13476;BME280;6810;63.824;20.288;2024-02-16T05:16:22;101849.84;;;1.19;79.79
13476;BME280;6810;63.824;20.288;2024-02-16T05:19:32;101855.09;;;1.20;79.83
13476;BME280;6810;63.824;20.288;2024-02-16T05:22:39;101853.31;;;1.21;79.84
13476;BME280;6810;63.824;20.288;2024-02-16T05:25:46;101850.69;;;1.21;79.95
13476;BME280;6810;63.824;20.288;2024-02-16T05:28:53;101841.94;;;1.22;79.93
13476;BME280;6810;63.824;20.288;2024-02-16T05:32:00;101833.19;;;1.23;80.11
13476;BME280;6810;63.824;20.288;2024-02-16T05:35:08;101829.66;;;1.24;80.29
13476;BME280;6810;63.824;20.288;2024-02-16T05:38:21;101785.09;;;1.04;80.22
13476;BME280;6810;63.824;20.288;2024-02-16T05:41:27;101818.31;;;1.26;79.68
13476;BME280;6810;63.824;20.288;2024-02-16T05:44:34;101828.81;;;1.28;80.35
13476;BME280;6810;63.824;20.288;2024-02-16T05:47:42;101814.78;;;1.29;80.34
13476;BME280;6810;63.824;20.288;2024-02-16T05:50:49;101819.19;;;1.30;80.26
13476;BME280;6810;63.824;20.288;2024-02-16T05:53:56;101819.19;;;1.31;79.90
13476;BME280;6810;63.824;20.288;2024-02-16T05:57:02;101819.16;;;1.33;80.20
13476;BME280;6810;63.824;20.288;2024-02-16T06:00:10;101812.16;;;1.32;79.79
13476;BME280;6810;63.824;20.288;2024-02-16T06:03:17;101816.53;;;1.33;80.52
13476;BME280;6810;63.824;20.288;2024-02-16T06:06:24;101822.63;;;1.36;80.12
13476;BME280;6810;63.824;20.288;2024-02-16T06:09:31;101814.75;;;1.38;80.33
13476;BME280;6810;63.824;20.288;2024-02-16T06:12:38;101813.91;;;1.39;80.41
13476;BME280;6810;63.824;20.288;2024-02-16T06:15:45;101806.88;;;1.41;80.41
13476;BME280;6810;63.824;20.288;2024-02-16T06:18:51;101788.50;;;1.36;80.67
13476;BME280;6810;63.824;20.288;2024-02-16T06:21:58;101764.03;;;1.24;80.73
13476;BME280;6810;63.824;20.288;2024-02-16T06:25:05;101779.75;;;1.42;80.52
13476;BME280;6810;63.824;20.288;2024-02-16T06:28:12;101741.28;;;1.26;80.18
13476;BME280;6810;63.824;20.288;2024-02-16T06:31:19;101771.84;;;1.48;80.66
13476;BME280;6810;63.824;20.288;2024-02-16T06:34:26;101756.91;;;1.50;80.31
13476;BME280;6810;63.824;20.288;2024-02-16T06:37:33;101750.81;;;1.51;80.11
13476;BME280;6810;63.824;20.288;2024-02-16T06:40:40;101762.16;;;1.53;80.78
13476;BME280;6810;63.824;20.288;2024-02-16T06:43:47;101708.00;;;1.29;80.97
13476;BME280;6810;63.824;20.288;2024-02-16T06:46:53;101748.16;;;1.55;80.29
13476;BME280;6810;63.824;20.288;2024-02-16T06:50:00;101735.00;;;1.57;80.46
13476;BME280;6810;63.824;20.288;2024-02-16T06:53:07;101720.09;;;1.59;80.81
13476;BME280;6810;63.824;20.288;2024-02-16T06:56:14;101716.63;;;1.55;80.82
13476;BME280;6810;63.824;20.288;2024-02-16T06:59:21;101726.22;;;1.62;80.56
13476;BME280;6810;63.824;20.288;2024-02-16T07:02:27;101712.22;;;1.59;80.56
13476;BME280;6810;63.824;20.288;2024-02-16T07:05:35;101715.69;;;1.64;80.10
13476;BME280;6810;63.824;20.288;2024-02-16T07:08:45;101712.19;;;1.66;81.20
13476;BME280;6810;63.824;20.288;2024-02-16T07:11:52;101711.28;;;1.67;81.18
13476;BME280;6810;63.824;20.288;2024-02-16T07:14:58;101694.63;;;1.68;80.52
13476;BME280;6810;63.824;20.288;2024-02-16T07:18:05;101696.41;;;1.69;80.79
13476;BME280;6810;63.824;20.288;2024-02-16T07:21:12;101678.84;;;1.71;80.53
13476;BME280;6810;63.824;20.288;2024-02-16T07:24:19;101679.72;;;1.73;80.80
13476;BME280;6810;63.824;20.288;2024-02-16T07:27:27;101665.72;;;1.71;80.45
13476;BME280;6810;63.824;20.288;2024-02-16T07:30:34;101673.56;;;1.74;80.88
13476;BME280;6810;63.824;20.288;2024-02-16T07:33:42;101670.94;;;1.76;81.72
13476;BME280;6810;63.824;20.288;2024-02-16T07:36:49;101674.44;;;1.78;81.39
13476;BME280;6810;63.824;20.288;2024-02-16T07:39:56;101656.06;;;1.75;80.76
13476;BME280;6810;63.824;20.288;2024-02-16T07:43:03;101655.13;;;1.80;80.88
13476;BME280;6810;63.824;20.288;2024-02-16T07:46:09;101650.75;;;1.81;81.17
13476;BME280;6810;63.824;20.288;2024-02-16T07:49:21;101649.00;;;1.82;81.85
13476;BME280;6810;63.824;20.288;2024-02-16T07:52:28;101640.22;;;1.83;80.91
13476;BME280;6810;63.824;20.288;2024-02-16T07:55:35;101645.47;;;1.84;81.84
13476;BME280;6810;63.824;20.288;2024-02-16T07:58:42;101627.06;;;1.86;82.14
13476;BME280;6810;63.824;20.288;2024-02-16T08:01:49;101624.44;;;1.86;81.34
13476;BME280;6810;63.824;20.288;2024-02-16T08:04:56;101625.31;;;1.88;81.67
13476;BME280;6810;63.824;20.288;2024-02-16T08:08:03;101624.41;;;1.90;81.94
13476;BME280;6810;63.824;20.288;2024-02-16T08:11:10;101606.94;;;1.86;82.04
13476;BME280;6810;63.824;20.288;2024-02-16T08:14:17;101605.16;;;1.87;81.74
13476;BME280;6810;63.824;20.288;2024-02-16T08:17:24;101614.75;;;1.92;81.61
13476;BME280;6810;63.824;20.288;2024-02-16T08:20:31;101617.41;;;1.91;82.09
13476;BME280;6810;63.824;20.288;2024-02-16T08:23:37;101601.63;;;1.92;81.27
13476;BME280;6810;63.824;20.288;2024-02-16T08:26:44;101594.59;;;1.94;82.13
13476;BME280;6810;63.824;20.288;2024-02-16T08:29:51;101582.31;;;1.93;82.47
13476;BME280;6810;63.824;20.288;2024-02-16T08:32:58;101584.91;;;1.96;81.64
13476;BME280;6810;63.824;20.288;2024-02-16T08:36:07;101584.06;;;1.97;82.18
13476;BME280;6810;63.824;20.288;2024-02-16T08:39:15;101570.06;;;1.94;82.42
13476;BME280;6810;63.824;20.288;2024-02-16T08:42:22;101564.75;;;1.97;81.35
13476;BME280;6810;63.824;20.288;2024-02-16T08:45:29;101571.75;;;1.99;81.41
13476;BME280;6810;63.824;20.288;2024-02-16T08:48:36;101564.75;;;2.00;82.03
13476;BME280;6810;63.824;20.288;2024-02-16T08:51:43;101554.22;;;2.00;81.59
13476;BME280;6810;63.824;20.288;2024-02-16T08:54:50;101535.81;;;2.01;82.53
13476;BME280;6810;63.824;20.288;2024-02-16T08:57:57;101521.81;;;1.96;82.50
13476;BME280;6810;63.824;20.288;2024-02-16T09:01:04;101516.53;;;1.99;82.64
13476;BME280;6810;63.824;20.288;2024-02-16T09:04:11;101520.00;;;2.04;82.26
13476;BME280;6810;63.824;20.288;2024-02-16T09:07:19;101504.22;;;2.04;82.70
13476;BME280;6810;63.824;20.288;2024-02-16T09:10:25;101492.81;;;2.04;82.81
13476;BME280;6810;63.824;20.288;2024-02-16T09:13:33;101487.53;;;2.07;82.36
13476;BME280;6810;63.824;20.288;2024-02-16T09:16:40;101483.19;;;2.06;83.05
13476;BME280;6810;63.824;20.288;2024-02-16T09:19:47;101479.66;;;2.07;82.34
13476;BME280;6810;63.824;20.288;2024-02-16T09:22:54;101473.50;;;2.09;81.85
13476;BME280;6810;63.824;20.288;2024-02-16T09:26:00;101465.63;;;2.09;83.25
13476;BME280;6810;63.824;20.288;2024-02-16T09:29:07;101458.56;;;2.11;83.02
13476;BME280;6810;63.824;20.288;2024-02-16T09:32:14;101457.69;;;2.12;82.25
13476;BME280;6810;63.824;20.288;2024-02-16T09:35:21;101438.50;;;2.04;83.11
13476;BME280;6810;63.824;20.288;2024-02-16T09:38:28;101434.84;;;2.14;82.42
13476;BME280;6810;63.824;20.288;2024-02-16T09:41:35;101434.00;;;2.15;82.65
13476;BME280;6810;63.824;20.288;2024-02-16T09:44:45;101419.91;;;2.18;83.37
13476;BME280;6810;63.824;20.288;2024-02-16T09:47:54;101419.03;;;2.19;82.90
13476;BME280;6810;63.824;20.288;2024-02-16T09:51:01;101413.75;;;2.19;82.26
13476;BME280;6810;63.824;20.288;2024-02-16T09:54:09;101397.13;;;2.20;82.56
13476;BME280;6810;63.824;20.288;2024-02-16T09:57:17;101397.13;;;2.18;82.38
13476;BME280;6810;63.824;20.288;2024-02-16T10:00:24;101400.56;;;2.23;83.47
13476;BME280;6810;63.824;20.288;2024-02-16T10:03:32;101356.97;;;2.07;83.30
13476;BME280;6810;63.824;20.288;2024-02-16T10:06:48;101347.34;;;2.08;83.25
13476;BME280;6810;63.824;20.288;2024-02-16T10:09:59;101372.47;;;2.25;82.42
13476;BME280;6810;63.824;20.288;2024-02-16T10:13:06;101366.34;;;2.26;82.82
13476;BME280;6810;63.824;20.288;2024-02-16T10:16:13;101369.84;;;2.25;83.19
13476;BME280;6810;63.824;20.288;2024-02-16T10:19:20;101343.56;;;2.24;83.02
13476;BME280;6810;63.824;20.288;2024-02-16T10:22:29;101354.94;;;2.27;83.29
13476;BME280;6810;63.824;20.288;2024-02-16T10:25:37;101344.41;;;2.29;83.42
13476;BME280;6810;63.824;20.288;2024-02-16T10:28:44;101333.00;;;2.28;83.72
13476;BME280;6810;63.824;20.288;2024-02-16T10:31:51;101328.59;;;2.30;83.54
13476;BME280;6810;63.824;20.288;2024-02-16T10:34:58;101325.06;;;2.30;83.49
13476;BME280;6810;63.824;20.288;2024-02-16T10:38:07;101317.16;;;2.31;83.19
13476;BME280;6810;63.824;20.288;2024-02-16T10:41:14;101309.25;;;2.33;83.60
13476;BME280;6810;63.824;20.288;2024-02-16T10:44:23;101303.97;;;2.34;82.46
13476;BME280;6810;63.824;20.288;2024-02-16T10:47:30;101286.47;;;2.33;82.37
13476;BME280;6810;63.824;20.288;2024-02-16T10:50:37;101285.53;;;2.36;82.79
13476;BME280;6810;63.824;20.288;2024-02-16T10:53:45;101274.16;;;2.35;83.46
13476;BME280;6810;63.824;20.288;2024-02-16T10:56:53;101257.59;;;2.30;82.94
13476;BME280;6810;63.824;20.288;2024-02-16T11:00:00;101267.09;;;2.37;83.42
13476;BME280;6810;63.824;20.288;2024-02-16T11:03:07;101259.19;;;2.39;83.65
13476;BME280;6810;63.824;20.288;2024-02-16T11:06:16;101248.66;;;2.39;82.60
13476;BME280;6810;63.824;20.288;2024-02-16T11:09:27;101244.28;;;2.39;83.65
13476;BME280;6810;63.824;20.288;2024-02-16T11:12:34;101230.22;;;2.40;82.55
13476;BME280;6810;63.824;20.288;2024-02-16T11:15:41;101229.38;;;2.40;82.63
13476;BME280;6810;63.824;20.288;2024-02-16T11:18:48;101218.00;;;2.38;83.86
13476;BME280;6810;63.824;20.288;2024-02-16T11:21:59;101204.81;;;2.41;82.79
13476;BME280;6810;63.824;20.288;2024-02-16T11:25:09;101196.94;;;2.39;83.31
13476;BME280;6810;63.824;20.288;2024-02-16T11:28:16;101184.63;;;2.41;83.44
13476;BME280;6810;63.824;20.288;2024-02-16T11:31:23;101172.38;;;2.40;83.35
13476;BME280;6810;63.824;20.288;2024-02-16T11:34:31;101161.09;;;2.35;83.76
13476;BME280;6810;63.824;20.288;2024-02-16T11:37:39;101160.09;;;2.41;82.67
13476;BME280;6810;63.824;20.288;2024-02-16T11:40:53;101159.22;;;2.40;83.71
13476;BME280;6810;63.824;20.288;2024-02-16T11:44:01;101152.19;;;2.41;83.72
13476;BME280;6810;63.824;20.288;2024-02-16T11:47:08;101146.91;;;2.42;82.67
13476;BME280;6810;63.824;20.288;2024-02-16T11:50:17;101128.50;;;2.42;82.88
13476;BME280;6810;63.824;20.288;2024-02-16T11:53:24;101123.25;;;2.42;82.55
13476;BME280;6810;63.824;20.288;2024-02-16T11:56:31;101085.81;;;2.28;82.86
13476;BME280;6810;63.824;20.288;2024-02-16T11:59:38;101089.97;;;2.40;83.84
13476;BME280;6810;63.824;20.288;2024-02-16T12:02:45;101088.16;;;2.42;82.78
13476;BME280;6810;63.824;20.288;2024-02-16T12:05:53;101077.63;;;2.43;83.07
13476;BME280;6810;63.824;20.288;2024-02-16T12:09:03;101049.66;;;2.39;82.94
13476;BME280;6810;63.824;20.288;2024-02-16T12:12:10;101046.97;;;2.42;82.60
13476;BME280;6810;63.824;20.288;2024-02-16T12:15:17;101045.22;;;2.43;82.91
13476;BME280;6810;63.824;20.288;2024-02-16T12:18:26;101034.72;;;2.41;83.40
13476;BME280;6810;63.824;20.288;2024-02-16T12:21:33;101026.75;;;2.44;83.89
13476;BME280;6810;63.824;20.288;2024-02-16T12:24:40;101018.88;;;2.44;83.26
13476;BME280;6810;63.824;20.288;2024-02-16T12:27:49;101010.09;;;2.44;83.40
13476;BME280;6810;63.824;20.288;2024-02-16T12:30:56;100995.28;;;2.41;83.68
13476;BME280;6810;63.824;20.288;2024-02-16T12:34:03;101003.09;;;2.44;82.60
13476;BME280;6810;63.824;20.288;2024-02-16T12:37:10;100989.94;;;2.44;82.89
13476;BME280;6810;63.824;20.288;2024-02-16T12:40:17;100980.31;;;2.43;83.48
13476;BME280;6810;63.824;20.288;2024-02-16T12:43:24;100956.75;;;2.37;83.74
13476;BME280;6810;63.824;20.288;2024-02-16T12:46:31;100961.03;;;2.43;83.46
13476;BME280;6810;63.824;20.288;2024-02-16T12:49:38;100938.28;;;2.40;83.05
13476;BME280;6810;63.824;20.288;2024-02-16T12:52:46;100936.50;;;2.42;83.02
13476;BME280;6810;63.824;20.288;2024-02-16T12:55:53;100922.53;;;2.39;82.82
13476;BME280;6810;63.824;20.288;2024-02-16T12:58:59;100919.88;;;2.40;82.90
13476;BME280;6810;63.824;20.288;2024-02-16T13:02:06;100914.59;;;2.42;83.86
13476;BME280;6810;63.824;20.288;2024-02-16T13:05:13;100897.16;;;2.38;84.03
13476;BME280;6810;63.824;20.288;2024-02-16T13:08:20;100891.81;;;2.41;83.93
13476;BME280;6810;63.824;20.288;2024-02-16T13:11:27;100884.81;;;2.41;82.93
13476;BME280;6810;63.824;20.288;2024-02-16T13:14:34;100880.44;;;2.40;82.97
13476;BME280;6810;63.824;20.288;2024-02-16T13:17:01;100869.91;;;2.40;83.61
13476;BME280;6810;63.824;20.288;2024-02-16T13:19:28;100860.28;;;2.39;83.09
13476;BME280;6810;63.824;20.288;2024-02-16T13:22:36;100849.81;;;2.38;83.01
13476;BME280;6810;63.824;20.288;2024-02-16T13:25:43;100834.94;;;2.37;82.83
13476;BME280;6810;63.824;20.288;2024-02-16T13:28:50;100839.34;;;2.36;83.79
13476;BME280;6810;63.824;20.288;2024-02-16T13:31:56;100823.56;;;2.36;83.89
13476;BME280;6810;63.824;20.288;2024-02-16T13:35:03;100815.66;;;2.36;83.09
13476;BME280;6810;63.824;20.288;2024-02-16T13:38:10;100812.16;;;2.36;83.31
13476;BME280;6810;63.824;20.288;2024-02-16T13:41:17;100802.50;;;2.36;83.46
13476;BME280;6810;63.824;20.288;2024-02-16T13:44:25;100790.28;;;2.35;83.75
13476;BME280;6810;63.824;20.288;2024-02-16T13:47:32;100785.03;;;2.35;83.09
13476;BME280;6810;63.824;20.288;2024-02-16T13:50:39;100766.63;;;2.35;83.15
13476;BME280;6810;63.824;20.288;2024-02-16T13:53:47;100757.97;;;2.30;83.93
13476;BME280;6810;63.824;20.288;2024-02-16T13:56:53;100753.47;;;2.35;83.31
13476;BME280;6810;63.824;20.288;2024-02-16T14:00:00;100749.97;;;2.35;83.73
13476;BME280;6810;63.824;20.288;2024-02-16T14:03:09;100744.75;;;2.33;83.48
13476;BME280;6810;63.824;20.288;2024-02-16T14:06:16;100735.97;;;2.33;83.87
13476;BME280;6810;63.824;20.288;2024-02-16T14:09:23;100739.47;;;2.33;83.47
13476;BME280;6810;63.824;20.288;2024-02-16T14:12:30;100709.94;;;2.22;83.42
13476;BME280;6810;63.824;20.288;2024-02-16T14:15:37;100722.78;;;2.34;83.40
13476;BME280;6810;63.824;20.288;2024-02-16T14:18:44;100702.66;;;2.33;83.29
13476;BME280;6810;63.824;20.288;2024-02-16T14:21:51;100699.13;;;2.34;84.26
13476;BME280;6810;63.824;20.288;2024-02-16T14:24:58;100693.88;;;2.34;83.98
13476;BME280;6810;63.824;20.288;2024-02-16T14:28:06;100693.03;;;2.34;82.96
13476;BME280;6810;63.824;20.288;2024-02-16T14:31:13;100682.53;;;2.32;84.16
13476;BME280;6810;63.824;20.288;2024-02-16T14:34:19;100675.50;;;2.33;83.06
13476;BME280;6810;63.824;20.288;2024-02-16T14:37:27;100657.09;;;2.33;83.59
13476;BME280;6810;63.824;20.288;2024-02-16T14:40:33;100644.81;;;2.33;84.18
13476;BME280;6810;63.824;20.288;2024-02-16T14:43:40;100641.31;;;2.33;82.92
13476;BME280;6810;63.824;20.288;2024-02-16T14:46:47;100630.00;;;2.31;83.68
13476;BME280;6810;63.824;20.288;2024-02-16T14:49:54;100626.50;;;2.30;83.20
13476;BME280;6810;63.824;20.288;2024-02-16T14:53:01;100635.25;;;2.31;83.27
13476;BME280;6810;63.824;20.288;2024-02-16T14:56:08;100613.38;;;2.29;83.46
13476;BME280;6810;63.824;20.288;2024-02-16T14:59:14;100609.03;;;2.28;83.24
13476;BME280;6810;63.824;20.288;2024-02-16T15:02:22;100606.41;;;2.28;83.21
13476;BME280;6810;63.824;20.288;2024-02-16T15:05:29;100579.50;;;2.18;83.32
13476;BME280;6810;63.824;20.288;2024-02-16T15:08:36;100584.53;;;2.26;83.17
13476;BME280;6810;63.824;20.288;2024-02-16T15:11:43;100572.31;;;2.23;84.19
13476;BME280;6810;63.824;20.288;2024-02-16T15:14:50;100580.22;;;2.25;84.25
13476;BME280;6810;63.824;20.288;2024-02-16T15:17:57;100570.63;;;2.22;83.18
13476;BME280;6810;63.824;20.288;2024-02-16T15:21:04;100569.69;;;2.25;83.60
13476;BME280;6810;63.824;20.288;2024-02-16T15:24:11;100565.28;;;2.25;83.47
13476;BME280;6810;63.824;20.288;2024-02-16T15:27:18;100560.06;;;2.24;84.28
13476;BME280;6810;63.824;20.288;2024-02-16T15:30:25;100557.47;;;2.22;83.57
13476;BME280;6810;63.824;20.288;2024-02-16T15:33:32;100547.78;;;2.24;84.20
13476;BME280;6810;63.824;20.288;2024-02-16T15:36:40;100547.81;;;2.23;83.47
13476;BME280;6810;63.824;20.288;2024-02-16T15:39:47;100539.06;;;2.22;83.72
13476;BME280;6810;63.824;20.288;2024-02-16T15:43:04;100527.63;;;2.23;83.87
13476;BME280;6810;63.824;20.288;2024-02-16T15:46:11;100526.78;;;2.23;84.63
13476;BME280;6810;63.824;20.288;2024-02-16T15:49:17;100513.78;;;2.18;84.03
13476;BME280;6810;63.824;20.288;2024-02-16T15:52:24;100521.59;;;2.21;83.92
13476;BME280;6810;63.824;20.288;2024-02-16T15:55:31;100524.16;;;2.23;84.55
13476;BME280;6810;63.824;20.288;2024-02-16T15:58:38;100507.56;;;2.21;83.60
13476;BME280;6810;63.824;20.288;2024-02-16T16:01:45;100440.19;;;1.88;84.29
13476;BME280;6810;63.824;20.288;2024-02-16T16:04:52;100495.25;;;2.23;84.23
13476;BME280;6810;63.824;20.288;2024-02-16T16:07:59;100482.16;;;2.21;84.48